Time;durP1;ratioP1;P1;durP2;ratioP2;P2;SDS_P1;SDS_P2;PMS_P1;PMS_P2;Temp;Humidity;BMP_temperature;BMP_pressure;BME280_temperature;BME280_humidity;BME280_pressure;Samples;Min_cycle;Max_cycle;Signal;HPM_P1;HPM_P2
2020/12/10 00:00:30;;;;;;;2.80;2.00;;;8.80;99.90;;;8.07;100.00;99274.69;4167839;28;20041;-72
2020/12/10 00:02:31;;;;;;;4.68;2.10;;;8.90;99.90;;;8.14;100.00;99267.75;4153070;28;20478;-72
2020/12/10 00:04:32;;;;;;;3.45;2.70;;;8.90;99.90;;;8.14;100.00;99254.63;4153155;28;20064;-72
2020/12/10 00:06:32;;;;;;;4.07;2.45;;;8.90;99.90;;;8.17;99.56;99238.50;4153083;28;20053;-72
2020/12/10 00:08:33;;;;;;;6.30;2.35;;;8.90;99.90;;;7.97;100.00;99232.94;4152885;28;20180;-72
2020/12/10 00:10:34;;;;;;;3.05;2.22;;;8.90;99.90;;;8.02;100.00;99222.72;4141532;28;20393;-72
2020/12/10 00:12:41;;;;;;;4.93;2.05;;;8.90;99.90;;;8.18;100.00;99221.78;4152866;28;20077;-72
2020/12/10 00:14:42;;;;;;;2.63;2.22;;;8.90;99.90;;;8.14;100.00;99218.69;4152540;28;20049;-72
2020/12/10 00:16:47;;;;;;;3.42;2.25;;;8.90;99.90;;;8.18;100.00;99208.63;4152502;28;20041;-72
2020/12/10 00:18:47;;;;;;;2.70;2.38;;;9.00;99.90;;;8.20;100.00;99201.38;4152758;28;20134;-72
2020/12/10 00:20:48;;;;;;;4.75;2.20;;;9.00;99.90;;;8.19;100.00;99200.56;4152656;28;20144;-72
2020/12/10 00:22:49;;;;;;;4.15;1.95;;;8.90;99.90;;;8.17;100.00;99186.81;4153863;28;20029;-73
2020/12/10 00:24:51;;;;;;;5.50;2.30;;;8.90;99.90;;;8.30;100.00;99188.84;4168927;28;20033;-72
2020/12/10 00:26:52;;;;;;;3.65;1.77;;;9.00;99.90;;;8.23;100.00;99183.47;4153847;28;20062;-72
2020/12/10 00:28:53;;;;;;;3.25;1.80;;;9.00;99.90;;;8.32;100.00;99179.78;4153732;28;20486;-72
2020/12/10 00:30:54;;;;;;;2.83;1.90;;;9.10;99.90;;;8.27;100.00;99174.25;4168569;28;20091;-72
2020/12/10 00:32:55;;;;;;;3.75;1.80;;;9.10;99.90;;;8.34;100.00;99172.53;4152330;28;20037;-72
2020/12/10 00:34:56;;;;;;;3.58;1.88;;;9.10;99.90;;;8.30;100.00;99146.81;4153662;28;20436;-72
2020/12/10 00:36:57;;;;;;;1.83;1.60;;;9.10;99.90;;;8.32;100.00;99143.00;4168853;28;20025;-72
2020/12/10 00:38:58;;;;;;;2.17;1.60;;;9.10;99.90;;;8.35;100.00;99152.34;4153790;28;20489;-72
2020/12/10 00:40:59;;;;;;;2.22;1.80;;;9.10;99.90;;;8.38;100.00;99140.66;4168576;28;20068;-73
2020/12/10 00:43:00;;;;;;;1.95;1.52;;;9.10;99.90;;;8.44;100.00;99138.13;4153700;28;20513;-73
2020/12/10 00:45:01;;;;;;;2.17;1.65;;;9.20;99.90;;;8.30;100.00;99133.69;4153333;28;20026;-72
2020/12/10 00:47:02;;;;;;;2.60;1.60;;;9.20;99.90;;;8.29;100.00;99132.88;4168627;28;20115;-72
2020/12/10 00:49:03;;;;;;;2.28;1.30;;;9.10;99.90;;;8.36;100.00;99106.69;4153431;28;20034;-72
2020/12/10 00:51:04;;;;;;;1.70;1.40;;;9.20;99.90;;;8.38;100.00;99090.72;4153560;28;20057;-72
2020/12/10 00:53:05;;;;;;;1.80;1.50;;;9.20;99.90;;;8.41;100.00;99083.31;4153526;28;20033;-72
2020/12/10 00:55:06;;;;;;;2.22;1.65;;;9.30;99.90;;;8.36;100.00;99079.59;4168666;28;20519;-73
2020/12/10 00:57:10;;;;;;;1.50;1.02;;;9.20;99.90;;;8.38;100.00;99078.41;4151231;28;20516;-73
2020/12/10 00:59:11;;;;;;;1.58;1.10;;;9.20;99.90;;;8.49;100.00;99085.81;4156769;28;20076;-73
2020/12/10 01:01:13;;;;;;;3.83;1.58;;;9.20;99.90;;;8.39;100.00;99069.56;4153391;28;20461;-73
2020/12/10 01:03:14;;;;;;;3.97;1.50;;;9.20;99.90;;;8.42;100.00;99063.13;4167666;28;20107;-72
2020/12/10 01:05:15;;;;;;;1.92;1.10;;;9.20;99.90;;;8.49;100.00;99066.63;4153221;28;20022;-72
2020/12/10 01:07:16;;;;;;;2.85;1.10;;;9.20;99.90;;;8.56;100.00;99060.47;4168559;28;20022;-72
2020/12/10 01:09:17;;;;;;;2.75;1.10;;;9.30;99.90;;;8.53;100.00;99052.94;4152072;28;20029;-72
2020/12/10 01:11:25;;;;;;;1.85;1.13;;;9.30;99.90;;;8.68;100.00;99047.66;4152086;28;20065;-72
2020/12/10 01:13:26;;;;;;;1.50;0.90;;;9.30;99.90;;;8.60;100.00;99035.41;4167333;28;20048;-72
2020/12/10 01:15:27;;;;;;;2.78;1.40;;;9.40;99.90;;;8.66;100.00;99034.69;4152751;28;20029;-72
2020/12/10 01:17:28;;;;;;;2.30;1.20;;;9.50;99.90;;;8.77;100.00;99044.72;4153220;28;20049;-72
2020/12/10 01:19:29;;;;;;;1.98;1.00;;;9.50;99.90;;;8.76;100.00;99039.66;4168257;28;20033;-72
2020/12/10 01:21:32;;;;;;;1.73;1.02;;;9.50;99.90;;;8.83;100.00;99030.03;4168079;28;20071;-72
2020/12/10 01:23:34;;;;;;;4.18;1.30;;;9.50;99.90;;;8.80;100.00;99046.16;4168140;28;20036;-72
2020/12/10 01:25:35;;;;;;;3.33;1.45;;;9.50;99.90;;;8.88;100.00;99054.75;4135614;28;20065;-72
2020/12/10 01:27:36;;;;;;;3.80;1.80;;;9.60;99.90;;;8.95;100.00;99048.75;4152886;28;20029;-72
2020/12/10 01:29:37;;;;;;;5.20;1.63;;;9.70;99.90;;;8.87;100.00;99047.84;4167606;28;20083;-72
2020/12/10 01:31:38;;;;;;;6.20;2.20;;;9.70;99.90;;;8.93;100.00;99042.88;4152854;28;20424;-73
2020/12/10 01:33:39;;;;;;;12.18;2.35;;;9.70;99.90;;;9.06;100.00;99064.03;4151776;28;20053;-72
2020/12/10 01:35:40;;;;;;;6.53;1.73;;;9.70;99.90;;;9.11;100.00;99056.41;4167953;28;20086;-72
2020/12/10 01:37:40;;;;;;;5.35;2.58;;;9.80;99.90;;;9.19;100.00;99067.63;4152640;28;20181;-72
2020/12/10 01:39:41;;;;;;;9.00;3.10;;;9.90;99.90;;;9.26;100.00;99068.47;4167847;28;20029;-73
2020/12/10 01:41:43;;;;;;;5.85;2.47;;;10.00;99.90;;;9.32;100.00;99074.81;4152765;28;20026;-72
2020/12/10 01:43:45;;;;;;;11.57;2.88;;;10.10;99.90;;;9.40;100.00;99072.06;4167834;28;20033;-72
2020/12/10 01:45:46;;;;;;;5.40;2.50;;;10.10;99.90;;;9.52;100.00;99083.72;4167474;28;20079;-72
2020/12/10 01:47:47;;;;;;;13.25;3.25;;;10.30;99.90;;;9.54;100.00;99086.94;4167682;28;20029;-72
2020/12/10 01:49:48;;;;;;;11.70;3.13;;;10.30;99.90;;;9.59;100.00;99078.50;4135088;28;20484;-72
2020/12/10 01:51:49;;;;;;;11.15;2.83;;;10.40;99.90;;;9.62;100.00;99089.44;4151234;28;20040;-72
2020/12/10 01:53:50;;;;;;;9.65;2.80;;;10.40;99.90;;;9.61;100.00;99087.84;4151235;28;20026;-72
2020/12/10 01:55:51;;;;;;;6.28;2.30;;;10.40;99.90;;;9.62;100.00;99092.06;4134924;28;20488;-72
2020/12/10 01:57:52;;;;;;;11.18;3.10;;;10.40;99.90;;;9.59;100.00;99089.03;4134859;28;20129;-72
2020/12/10 01:59:53;;;;;;;9.85;2.33;;;10.40;99.90;;;9.61;100.00;99100.19;4150951;28;20069;-72
2020/12/10 02:01:54;;;;;;;9.25;2.85;;;10.50;99.90;;;9.57;100.00;99097.09;4151221;28;20026;-72
2020/12/10 02:03:55;;;;;;;8.90;1.85;;;10.50;99.90;;;9.67;100.00;99109.94;4151030;28;20129;-72
2020/12/10 02:05:56;;;;;;;4.63;1.75;;;10.50;99.90;;;9.69;100.00;99111.38;4158230;28;20494;-72
2020/12/10 02:07:57;;;;;;;9.60;2.28;;;10.50;99.90;;;9.68;100.00;99122.91;4152446;28;20109;-72
2020/12/10 02:09:58;;;;;;;4.15;1.80;;;10.50;99.90;;;9.66;100.00;99130.19;4167422;28;20026;-72
2020/12/10 02:11:59;;;;;;;3.10;1.23;;;10.50;99.90;;;9.66;100.00;99127.56;4152412;28;20033;-72
2020/12/10 02:14:00;;;;;;;4.80;1.45;;;10.50;99.90;;;9.69;100.00;99136.91;4166578;28;20053;-72
2020/12/10 02:16:02;;;;;;;2.85;0.90;;;10.50;99.90;;;9.63;100.00;99138.47;4151076;28;20397;-72
2020/12/10 02:18:07;;;;;;;2.92;1.63;;;10.40;99.90;;;9.51;100.00;99134.72;4150995;28;20026;-72
2020/12/10 02:20:08;;;;;;;1.77;1.05;;;10.40;99.90;;;9.45;100.00;99148.63;4167379;28;20033;-73
2020/12/10 02:22:08;;;;;;;4.00;1.20;;;10.30;99.90;;;9.33;100.00;99143.03;4167429;28;20053;-72
2020/12/10 02:24:14;;;;;;;5.25;1.50;;;10.20;99.90;;;9.24;99.74;99148.59;4152218;28;20026;-73
2020/12/10 02:26:19;;;;;;;5.47;1.45;;;10.10;99.90;;;9.19;99.61;99158.88;4152003;28;20030;-72
2020/12/10 02:28:21;;;;;;;6.90;1.60;;;10.00;99.90;;;9.21;99.21;99154.22;4166971;28;20025;-72
2020/12/10 02:30:22;;;;;;;4.45;1.65;;;10.00;99.90;;;9.20;98.13;99163.94;4167002;28;20027;-72
2020/12/10 02:32:22;;;;;;;3.65;1.42;;;10.00;99.90;;;9.19;98.57;99161.50;4165947;28;20072;-72
2020/12/10 02:34:23;;;;;;;6.22;1.30;;;9.90;99.90;;;9.13;98.07;99165.69;4151899;28;20034;-72
2020/12/10 02:36:25;;;;;;;4.78;1.15;;;9.90;99.90;;;9.11;97.21;99166.88;4151191;28;20521;-72
2020/12/10 02:38:26;;;;;;;4.88;1.52;;;9.80;99.90;;;9.04;97.20;99172.06;4167028;28;20032;-72
2020/12/10 02:40:30;;;;;;;7.75;1.85;;;9.70;99.90;;;8.98;97.27;99174.59;4150669;28;20038;-72
2020/12/10 02:42:31;;;;;;;7.32;2.28;;;9.70;99.90;;;9.03;97.38;99180.13;4150756;28;20018;-72
2020/12/10 02:44:32;;;;;;;6.68;1.98;;;9.70;99.90;;;8.97;96.81;99178.22;4151807;28;20112;-72
2020/12/10 02:46:33;;;;;;;6.80;2.13;;;9.70;99.90;;;8.95;96.67;99196.84;4152069;28;20105;-72
2020/12/10 02:48:34;;;;;;;6.03;1.50;;;9.70;99.90;;;8.79;96.88;99184.69;4167275;28;20021;-72
2020/12/10 02:50:38;;;;;;;10.27;2.15;;;9.60;99.90;;;8.88;97.04;99190.66;4166903;28;20053;-72
2020/12/10 02:52:39;;;;;;;6.72;2.13;;;9.60;99.90;;;8.85;96.60;99202.38;4167236;28;20033;-72
2020/12/10 02:54:40;;;;;;;8.10;2.42;;;9.50;99.90;;;8.83;96.64;99199.13;4150863;28;20030;-72
2020/12/10 02:56:43;;;;;;;11.80;2.33;;;9.50;99.90;;;8.81;96.28;99201.09;4134399;28;20093;-72
2020/12/10 02:58:44;;;;;;;7.75;1.98;;;9.40;99.90;;;8.74;96.06;99207.28;4139159;28;20085;-72
2020/12/10 03:00:45;;;;;;;9.45;1.80;;;9.50;99.90;;;8.74;96.17;99210.72;4166640;28;20032;-72
2020/12/10 03:02:46;;;;;;;10.93;3.15;;;9.40;99.90;;;8.72;96.10;99207.44;4151699;28;20017;-72
2020/12/10 03:04:48;;;;;;;8.55;3.38;;;9.40;99.90;;;8.73;95.47;99216.16;4150613;28;20025;-73
2020/12/10 03:06:48;;;;;;;9.32;2.42;;;9.40;99.90;;;8.68;95.84;99221.97;4151548;28;20084;-72
2020/12/10 03:08:49;;;;;;;8.43;2.22;;;9.30;99.90;;;8.60;95.52;99210.72;4151834;28;20034;-72
2020/12/10 03:10:52;;;;;;;7.32;2.40;;;9.30;99.90;;;8.65;95.64;99224.94;4151776;28;20485;-72
2020/12/10 03:12:53;;;;;;;10.88;2.92;;;9.30;99.90;;;8.62;95.05;99216.59;4151617;28;20107;-73
2020/12/10 03:14:54;;;;;;;10.90;2.10;;;9.30;99.90;;;8.61;94.62;99223.66;4151346;28;20061;-72
2020/12/10 03:16:55;;;;;;;10.10;2.10;;;9.20;99.90;;;8.65;94.80;99235.47;4151822;28;20081;-72
2020/12/10 03:18:56;;;;;;;9.63;2.45;;;9.20;99.90;;;8.61;94.38;99230.72;4166977;28;20029;-72
2020/12/10 03:20:57;;;;;;;12.10;3.45;;;9.20;99.90;;;8.62;94.37;99233.19;4151643;28;20030;-72
2020/12/10 03:22:58;;;;;;;16.10;2.67;;;9.20;99.90;;;8.51;94.82;99220.47;4150363;28;20026;-72
2020/12/10 03:24:59;;;;;;;10.57;2.53;;;9.20;99.90;;;8.63;94.16;99241.91;4151898;28;20157;-72
2020/12/10 03:26:59;;;;;;;17.10;4.07;;;9.20;99.90;;;8.56;94.34;99233.91;4170040;28;20029;-72
2020/12/10 03:29:01;;;;;;;10.68;2.72;;;9.10;99.90;;;8.38;94.38;99230.81;4169627;28;20040;-72
2020/12/10 03:31:02;;;;;;;7.50;2.03;;;9.10;99.90;;;8.47;93.77;99236.78;4169847;28;20029;-72
2020/12/10 03:33:03;;;;;;;11.02;2.30;;;9.10;99.90;;;8.43;94.26;99249.47;4152251;28;20084;-72
2020/12/10 03:35:05;;;;;;;12.85;2.92;;;9.10;99.90;;;8.51;93.23;99251.22;4153711;28;20033;-72
2020/12/10 03:37:06;;;;;;;11.18;2.50;;;9.10;99.90;;;8.51;93.25;99251.22;4154816;28;20056;-72
2020/12/10 03:39:07;;;;;;;11.43;2.42;;;9.00;99.90;;;8.43;93.74;99259.97;4169801;28;20021;-72
2020/12/10 03:41:08;;;;;;;14.65;3.53;;;9.00;99.90;;;8.38;93.66;99259.72;4153405;28;20509;-72
2020/12/10 03:43:09;;;;;;;12.43;2.50;;;9.00;99.90;;;8.26;93.68;99251.41;4153475;28;20118;-72
2020/12/10 03:45:10;;;;;;;20.55;4.25;;;9.00;99.90;;;8.26;93.98;99263.72;4153031;28;20053;-72
2020/12/10 03:47:12;;;;;;;13.65;3.33;;;8.90;99.90;;;8.42;93.14;99271.50;4153291;28;20022;-72
2020/12/10 03:49:13;;;;;;;11.07;3.22;;;8.90;99.90;;;8.30;93.68;99267.66;4154546;28;20030;-72
2020/12/10 03:51:14;;;;;;;12.45;3.65;;;8.90;99.90;;;8.32;93.74;99268.28;4154499;28;20030;-72
2020/12/10 03:53:15;;;;;;;11.32;2.42;;;9.00;99.90;;;8.27;93.92;99260.09;4169606;28;20083;-72
2020/12/10 03:55:15;;;;;;;11.45;4.00;;;8.90;99.90;;;8.31;93.79;99264.84;4153114;28;20080;-72
2020/12/10 03:57:16;;;;;;;16.10;3.28;;;9.00;99.90;;;8.36;93.56;99261.69;4148953;28;20582;-73
2020/12/10 03:59:17;;;;;;;15.25;3.97;;;9.00;99.90;;;8.35;93.82;99265.31;4152963;28;20129;-72
2020/12/10 04:01:18;;;;;;;15.13;3.17;;;9.00;99.90;;;8.34;93.72;99277.63;4154239;28;20034;-72
2020/12/10 04:03:19;;;;;;;10.20;2.47;;;8.90;99.90;;;8.25;93.50;99275.22;4169118;28;20049;-72
2020/12/10 04:05:20;;;;;;;9.68;2.15;;;9.00;99.90;;;8.33;93.77;99270.72;4154091;28;20030;-72
2020/12/10 04:07:21;;;;;;;20.27;4.03;;;8.90;99.90;;;8.30;93.57;99281.59;4152974;28;20018;-72
2020/12/10 04:09:22;;;;;;;12.73;3.10;;;8.90;99.90;;;8.38;93.42;99291.22;4154106;28;20026;-72
2020/12/10 04:11:26;;;;;;;15.77;2.90;;;8.80;99.90;;;8.25;94.32;99290.97;4152829;28;20026;-72
2020/12/10 04:13:27;;;;;;;14.20;3.35;;;8.80;99.90;;;8.19;94.15;99283.78;4152731;28;20054;-72
2020/12/10 04:15:28;;;;;;;14.75;2.92;;;8.80;99.90;;;8.23;93.94;99298.22;4153807;28;20037;-72
2020/12/10 04:17:29;;;;;;;11.98;2.72;;;8.80;99.90;;;8.21;93.91;99287.88;4154125;28;20065;-72
2020/12/10 04:19:30;;;;;;;17.38;2.92;;;8.80;99.90;;;8.33;93.68;99302.25;4168923;28;20029;-72
2020/12/10 04:21:31;;;;;;;21.13;3.42;;;8.70;99.90;;;8.18;93.46;99300.56;4152525;28;20022;-72
2020/12/10 04:23:32;;;;;;;11.20;2.92;;;8.70;99.90;;;8.21;93.83;99308.09;4154013;28;20037;-73
2020/12/10 04:25:33;;;;;;;15.52;3.40;;;8.70;99.90;;;8.10;94.01;99301.44;4169150;28;20030;-72
2020/12/10 04:27:34;;;;;;;13.60;3.50;;;8.70;99.90;;;8.08;94.02;99306.03;4152618;28;20484;-72
2020/12/10 04:29:35;;;;;;;12.32;3.47;;;8.60;99.90;;;8.05;94.86;99310.81;4165685;28;20036;-72
2020/12/10 04:31:38;;;;;;;13.90;4.00;;;8.60;99.90;;;8.00;94.73;99313.16;4153890;28;20057;-72
2020/12/10 04:33:40;;;;;;;15.65;3.28;;;8.60;99.90;;;8.03;94.21;99315.44;4152866;28;20113;-72
2020/12/10 04:35:42;;;;;;;13.70;3.22;;;8.60;99.90;;;7.89;95.63;99319.63;4152540;28;20026;-73
2020/12/10 04:37:43;;;;;;;10.77;2.72;;;8.50;99.90;;;7.85;95.21;99328.84;4153507;28;20030;-72
2020/12/10 04:39:43;;;;;;;16.50;3.08;;;8.40;99.90;;;7.83;95.84;99328.19;4168844;28;20028;-72
2020/12/10 04:41:46;;;;;;;16.05;3.88;;;8.40;99.90;;;7.84;95.84;99336.88;4168879;28;20041;-72
2020/12/10 04:43:47;;;;;;;19.42;3.33;;;8.30;99.90;;;7.78;95.43;99336.59;4168695;28;20031;-72
2020/12/10 04:45:49;;;;;;;18.00;4.40;;;8.40;99.90;;;7.69;95.69;99335.00;4152219;28;20030;-73
2020/12/10 04:47:52;;;;;;;10.13;2.33;;;8.30;99.90;;;7.78;94.72;99333.97;4136172;28;20034;-72
2020/12/10 04:49:54;;;;;;;12.23;3.72;;;8.30;99.90;;;7.85;95.58;99325.41;4152551;28;20536;-72
2020/12/10 04:51:57;;;;;;;12.48;3.47;;;8.30;99.90;;;7.70;95.50;99320.91;4168912;28;20520;-72
2020/12/10 04:53:59;;;;;;;18.13;4.47;;;8.30;99.90;;;7.71;95.50;99334.81;4153703;28;20026;-72
2020/12/10 04:56:07;;;;;;;14.88;2.88;;;8.30;99.90;;;7.76;95.15;99327.25;4168874;28;20033;-72
2020/12/10 04:58:09;;;;;;;15.77;3.20;;;8.20;99.90;;;7.61;96.26;99337.66;4159485;28;20171;-72
2020/12/10 05:00:14;;;;;;;20.90;4.97;;;8.20;99.90;;;7.77;94.88;99340.19;4149593;28;20406;-72
2020/12/10 05:02:18;;;;;;;16.00;3.50;;;8.30;99.90;;;7.80;95.09;99342.47;4155113;28;20045;-72
2020/12/10 05:04:21;;;;;;;;;;;8.20;99.90;;;7.66;94.93;99348.47;4152506;28;20030;-72
2020/12/10 05:06:22;;;;;;;21.45;4.57;;;8.20;99.90;;;7.52;96.26;99351.00;4152297;28;19916;-72
2020/12/10 05:08:30;;;;;;;17.60;5.43;;;8.10;99.90;;;7.64;95.66;99352.25;4152016;28;20049;-72
2020/12/10 05:10:46;;;;;;;15.38;5.40;;;8.10;99.90;;;7.45;96.44;99350.03;4152206;28;20048;-72
2020/12/10 05:12:47;;;;;;;18.08;4.70;;;8.10;99.90;;;7.56;96.15;99358.34;4159318;28;20046;-72
2020/12/10 05:14:49;;;;;;;17.33;4.13;;;8.10;99.90;;;7.58;95.67;99361.63;4167888;28;20025;-72
2020/12/10 05:17:15;;;;;;;13.68;3.55;;;8.10;99.90;;;7.55;96.15;99361.97;4168508;28;20103;-72
2020/12/10 05:19:20;;;;;;;17.77;4.25;;;8.10;99.90;;;7.53;95.34;99356.06;4168323;28;20030;-72
2020/12/10 05:21:21;;;;;;;24.15;3.72;;;8.10;99.90;;;7.58;96.17;99373.94;4152860;28;20041;-72
2020/12/10 05:23:38;;;;;;;13.77;3.45;;;8.10;99.90;;;7.51;95.86;99378.22;4135737;28;20027;-72
2020/12/10 05:25:56;;;;;;;12.50;3.13;;;8.00;99.90;;;7.46;95.80;99380.53;4151851;28;20030;-73
2020/12/10 05:28:00;;;;;;;14.77;3.20;;;8.00;99.90;;;7.42;96.33;99389.72;4168095;28;20057;-72
2020/12/10 05:30:03;;;;;;;15.27;4.13;;;7.90;99.90;;;7.38;96.58;99385.81;4168043;28;20061;-72
2020/12/10 05:32:04;;;;;;;15.57;3.35;;;7.90;99.90;;;7.55;95.35;99390.84;4166930;28;20034;-72
2020/12/10 05:34:05;;;;;;;19.23;3.70;;;7.90;99.90;;;7.51;95.60;99384.28;4153018;28;20084;-72
2020/12/10 05:36:12;;;;;;;15.05;2.95;;;7.90;99.90;;;7.44;95.48;99398.22;4153257;28;20123;-72
2020/12/10 05:38:13;;;;;;;11.07;4.28;;;7.90;99.90;;;7.40;95.67;99396.94;4152982;28;20034;-72
2020/12/10 05:40:15;;;;;;;16.92;4.22;;;7.90;99.90;;;7.36;95.75;99400.88;4167960;28;20025;-72
2020/12/10 05:42:16;;;;;;;17.63;3.33;;;7.90;99.90;;;7.34;96.07;99408.94;4152811;28;20485;-72
2020/12/10 05:44:25;;;;;;;12.93;4.05;;;7.80;99.90;;;7.37;95.57;99413.84;4167808;28;20060;-72
2020/12/10 05:46:26;;;;;;;22.00;4.03;;;7.90;99.90;;;7.26;96.11;99395.03;4168169;28;20052;-72
2020/12/10 05:48:27;;;;;;;18.73;4.35;;;7.80;99.90;;;7.29;95.64;99410.41;4167480;28;20018;-72
2020/12/10 05:50:32;;;;;;;13.43;3.60;;;7.80;99.90;;;7.29;95.90;99411.22;4151442;28;20029;-72
2020/12/10 05:52:37;;;;;;;11.00;4.20;;;7.80;99.90;;;7.29;95.76;99411.22;4152809;28;20030;-72
2020/12/10 05:54:42;;;;;;;14.05;4.35;;;7.70;99.90;;;7.29;94.91;99418.28;4167802;28;20021;-72
2020/12/10 05:56:59;;;;;;;13.70;4.53;;;7.70;99.90;;;7.25;95.37;99415.19;4151511;28;20065;-72
2020/12/10 05:59:00;;;;;;;19.60;4.97;;;7.70;99.90;;;7.07;96.30;99432.91;4153979;28;20547;-73
2020/12/10 06:01:02;;;;;;;11.68;3.42;;;7.70;99.90;;;7.14;95.46;99429.44;4167706;28;20033;-73
2020/12/10 06:03:04;;;;;;;18.48;3.70;;;7.70;99.90;;;7.20;95.22;99428.78;4156453;28;20021;-73
2020/12/10 06:05:05;;;;;;;21.40;5.72;;;7.70;99.90;;;7.01;95.80;99433.56;4151216;28;20077;-73
2020/12/10 06:07:10;;;;;;;15.65;4.22;;;7.60;99.90;;;7.16;94.57;99432.72;4138064;28;20038;-72
2020/12/10 06:09:15;;;;;;;19.75;4.88;;;7.60;99.90;;;7.20;94.28;99427.94;4158342;28;20022;-72
2020/12/10 06:11:22;;;;;;;21.77;3.95;;;7.50;99.90;;;7.22;94.70;99452.22;4167608;28;20048;-72
2020/12/10 06:13:23;;;;;;;16.20;3.38;;;7.60;99.90;;;7.09;94.60;99442.25;4151648;28;20115;-72
2020/12/10 06:15:26;;;;;;;13.35;3.33;;;7.50;99.90;;;7.10;95.06;99433.41;4150853;28;20037;-72
2020/12/10 06:17:32;;;;;;;19.35;3.17;;;7.50;99.90;;;7.21;95.41;99447.97;4167522;28;20575;-72
2020/12/10 06:19:36;;;;;;;15.70;3.15;;;7.50;99.90;;;7.22;94.62;99446.97;4167416;28;20045;-72
2020/12/10 06:21:45;;;;;;;12.37;3.97;;;7.50;99.90;;;7.06;95.77;99436.50;4167135;28;20071;-72
2020/12/10 06:23:46;;;;;;;13.73;3.05;;;7.50;99.90;;;7.16;94.83;99456.34;4151277;28;20311;-72
2020/12/10 06:25:47;;;;;;;19.95;3.67;;;7.50;99.90;;;7.16;95.23;99463.38;4140491;28;20030;-72
2020/12/10 06:27:49;;;;;;;16.08;3.50;;;7.60;99.90;;;7.28;94.29;99458.59;4150742;28;20038;-73
2020/12/10 06:30:09;;;;;;;14.52;4.45;;;7.60;99.90;;;7.34;93.75;99460.56;4152328;28;20041;-72
2020/12/10 06:32:17;;;;;;;13.80;3.65;;;7.60;99.90;;;7.19;94.04;99453.38;4166033;28;20036;-72
2020/12/10 06:34:47;;;;;;;18.58;4.95;;;7.60;99.90;;;7.23;94.07;99453.84;4167381;28;20420;-72
2020/12/10 06:36:48;;;;;;;11.60;3.75;;;7.60;99.90;;;7.23;93.76;99464.34;4166259;28;20061;-72
2020/12/10 06:38:51;;;;;;;11.25;3.25;;;7.50;99.90;;;7.10;94.35;99461.41;4167319;28;20029;-72
2020/12/10 06:41:00;;;;;;;14.27;3.33;;;7.50;99.90;;;7.06;94.94;99474.03;4167105;28;20088;-72
2020/12/10 06:43:02;;;;;;;18.30;4.05;;;7.50;99.90;;;7.14;94.23;99471.41;4167440;28;20025;-72
2020/12/10 06:45:22;;;;;;;10.63;3.50;;;7.50;99.90;;;7.13;93.84;99484.69;4166931;28;20432;-72
2020/12/10 06:47:41;;;;;;;13.57;3.40;;;7.40;99.90;;;7.02;94.99;99474.50;4151974;28;20445;-72
2020/12/10 06:49:42;;;;;;;10.52;3.55;;;7.40;99.90;;;7.12;93.86;99486.47;4151063;28;20037;-72
2020/12/10 06:52:11;;;;;;;17.08;3.97;;;7.40;99.90;;;7.03;93.64;99490.09;4150900;28;20037;-72
2020/12/10 06:54:13;;;;;;;18.10;4.45;;;7.40;99.90;;;6.99;94.64;99487.97;4145234;28;20092;-72
2020/12/10 06:56:16;;;;;;;12.75;3.45;;;7.40;99.90;;;7.09;94.11;99501.72;4166929;28;20034;-72
2020/12/10 06:58:17;;;;;;;13.60;3.55;;;7.40;99.90;;;7.10;93.40;99500.75;4150695;28;20057;-72
2020/12/10 07:00:41;;;;;;;17.52;3.60;;;7.40;99.90;;;7.14;94.03;99502.03;4121395;28;20042;-72
2020/12/10 07:02:42;;;;;;;12.43;3.17;;;7.40;99.90;;;7.07;94.03;99514.19;4144752;28;20102;-72
2020/12/10 07:04:50;;;;;;;12.68;3.70;;;7.40;99.90;;;7.00;94.83;99505.31;4154334;28;20026;-72
2020/12/10 07:07:14;;;;;;;16.08;3.42;;;7.40;99.90;;;6.91;94.82;99515.00;4154124;28;20461;-72
2020/12/10 07:09:15;;;;;;;14.40;4.13;;;7.30;99.90;;;6.82;94.36;99513.34;4170600;28;20075;-72
2020/12/10 07:11:34;;;;;;;8.50;3.13;;;7.30;99.90;;;6.65;95.49;99511.69;4155300;28;20038;-72
2020/12/10 07:13:34;;;;;;;21.70;3.80;;;7.20;99.90;;;6.67;95.21;99504.47;4170221;28;20048;-72
2020/12/10 07:15:42;;;;;;;18.08;4.30;;;7.20;99.90;;;6.71;95.37;99513.66;4154958;28;20025;-72
2020/12/10 07:17:48;;;;;;;18.23;4.00;;;7.20;99.90;;;6.76;95.39;99521.03;4169631;28;20490;-72
2020/12/10 07:19:49;;;;;;;13.45;4.13;;;7.20;99.90;;;6.80;95.18;99517.09;4170132;28;20424;-72
2020/12/10 07:21:54;;;;;;;13.45;4.15;;;7.20;99.90;;;6.69;95.53;99516.41;4154871;28;20149;-72
2020/12/10 07:23:54;;;;;;;14.43;4.20;;;7.20;99.90;;;6.77;95.35;99514.81;4170309;28;20025;-72
2020/12/10 07:25:56;;;;;;;11.65;3.13;;;7.20;99.90;;;6.70;96.20;99517.25;4153947;28;20117;-72
2020/12/10 07:27:59;;;;;;;20.35;4.50;;;7.20;99.90;;;6.77;95.50;99530.53;4150383;28;20054;-72
2020/12/10 07:30:00;;;;;;;17.17;3.75;;;7.20;99.90;;;6.73;95.89;99529.19;4154544;28;20033;-72
2020/12/10 07:32:02;;;;;;;13.25;4.85;;;7.10;99.90;;;6.77;95.66;99531.34;4169676;28;20063;-72
2020/12/10 07:34:03;;;;;;;18.73;3.85;;;7.20;99.90;;;6.82;95.48;99528.25;4153792;28;20029;-72
2020/12/10 07:36:08;;;;;;;14.80;4.65;;;7.20;99.90;;;6.78;95.78;99526.94;4154768;28;20029;-72
2020/12/10 07:38:16;;;;;;;13.50;3.45;;;7.20;99.90;;;6.80;96.03;99538.06;4170001;28;20137;-72
2020/12/10 07:40:18;;;;;;;13.60;3.85;;;7.20;99.90;;;6.84;96.08;99542.03;4153466;28;20057;-72
2020/12/10 07:42:20;;;;;;;15.10;4.40;;;7.20;99.90;;;6.73;96.92;99539.69;4169737;28;20034;-72
2020/12/10 07:44:29;;;;;;;21.35;4.60;;;7.30;99.90;;;7.00;95.78;99547.28;4154375;28;20162;-72
2020/12/10 07:46:37;;;;;;;18.15;4.05;;;7.30;99.90;;;6.92;95.57;99555.13;4169542;28;20116;-72
2020/12/10 07:48:58;;;;;;;17.52;3.90;;;7.40;99.90;;;6.69;96.10;99540.00;4154695;28;20026;-72
2020/12/10 07:50:59;;;;;;;19.25;4.05;;;7.30;99.90;;;6.80;95.69;99551.19;4153011;28;20468;-72
2020/12/10 07:53:07;;;;;;;18.00;4.35;;;7.30;99.90;;;6.84;95.73;99561.16;4154628;28;20081;-72
2020/12/10 07:55:15;;;;;;;22.98;4.32;;;7.30;99.90;;;6.80;95.63;99562.50;4154537;28;20026;-72
2020/12/10 07:57:37;;;;;;;15.05;6.97;;;7.30;99.90;;;6.83;95.86;99564.78;4154408;28;20069;-72
2020/12/10 07:59:44;;;;;;;29.60;5.80;;;7.30;99.90;;;6.66;96.52;99569.16;4160544;28;20025;-72
2020/12/10 08:01:54;;;;;;;18.80;4.68;;;7.30;99.90;;;6.88;95.13;99569.53;4167781;28;20022;-72
2020/12/10 08:04:12;;;;;;;13.60;3.42;;;7.40;99.90;;;6.79;95.49;99579.19;4149304;28;20032;-72
2020/12/10 08:06:16;;;;;;;17.48;3.72;;;7.40;99.90;;;6.80;95.50;99572.97;4168493;28;20032;-72
2020/12/10 08:08:28;;;;;;;12.45;4.35;;;7.40;99.90;;;6.89;95.81;99576.44;4168411;28;20033;-72
2020/12/10 08:10:33;;;;;;;14.73;3.80;;;7.40;99.90;;;6.88;95.07;99595.75;4142853;28;20044;-72
2020/12/10 08:12:34;;;;;;;13.68;3.97;;;7.40;99.90;;;6.83;95.17;99579.69;4168941;28;20041;-73
2020/12/10 08:14:35;;;;;;;23.58;4.15;;;7.40;99.90;;;6.90;95.16;99589.34;4153897;28;20413;-72
2020/12/10 08:16:44;;;;;;;18.58;4.32;;;7.40;99.90;;;6.85;95.18;99594.25;4154017;28;20409;-72
2020/12/10 08:18:45;;;;;;;21.08;5.35;;;7.40;99.90;;;6.87;96.11;99615.09;4169454;28;20033;-72
2020/12/10 08:20:52;;;;;;;15.32;5.00;;;7.40;99.90;;;6.79;95.81;99607.19;4169334;28;20036;-72
2020/12/10 08:23:04;;;;;;;16.00;3.88;;;7.40;99.90;;;6.80;96.24;99616.69;4169082;28;20093;-73
2020/12/10 08:25:15;;;;;;;14.77;4.65;;;7.40;99.90;;;6.90;95.36;99620.00;4169478;28;20032;-72
2020/12/10 08:27:18;;;;;;;11.38;3.63;;;7.40;99.90;;;6.84;95.39;99602.31;4153943;28;20018;-72
2020/12/10 08:29:19;;;;;;;16.05;3.63;;;7.50;99.90;;;6.88;95.84;99616.72;4166126;28;20026;-74
2020/12/10 08:31:29;;;;;;;15.38;3.78;;;7.50;99.90;;;6.96;95.41;99622.00;4138970;28;20532;-73
2020/12/10 08:33:37;;;;;;;16.40;4.35;;;7.50;99.90;;;7.02;93.91;99621.31;4167261;28;20037;-72
2020/12/10 08:35:47;;;;;;;16.05;4.45;;;7.50;99.90;;;7.05;95.24;99634.94;4168745;28;20063;-72
2020/12/10 08:37:48;;;;;;;17.70;4.38;;;7.50;99.90;;;6.96;95.11;99646.38;4155372;28;20048;-72
2020/12/10 08:39:53;;;;;;;11.50;4.05;;;7.50;99.90;;;6.94;95.75;99639.66;4153524;28;20030;-73
2020/12/10 08:41:54;;;;;;;14.57;4.18;;;7.60;99.90;;;6.93;95.93;99635.44;4168717;28;20030;-73
2020/12/10 08:44:00;;;;;;;21.92;5.95;;;7.60;99.90;;;6.85;96.01;99640.63;4168215;28;20081;-73